createdAt,value
2018-11-28T00:00:23.690Z,91.50
2018-11-28T00:02:51.932Z,92.00
2018-11-28T00:05:20.394Z,92.60
2018-11-28T00:07:48.646Z,93.10
2018-11-28T00:10:17.190Z,93.40
2018-11-28T00:12:45.413Z,93.10
2018-11-28T00:15:14.505Z,92.90
2018-11-28T00:17:42.959Z,93.30
2018-11-28T00:20:16.836Z,93.30
2018-11-28T00:22:45.330Z,93.10
2018-11-28T00:25:14.269Z,92.50
2018-11-28T00:27:42.480Z,92.80
2018-11-28T00:30:12.162Z,93.10
2018-11-28T00:32:40.480Z,93.10
2018-11-28T00:35:10.830Z,93.20
2018-11-28T00:37:39.031Z,92.70
2018-11-28T00:40:09.086Z,91.30
2018-11-28T00:42:37.186Z,90.70
2018-11-28T00:45:09.958Z,91.00
2018-11-28T00:47:38.224Z,92.00
2018-11-28T00:50:09.089Z,92.30
2018-11-28T00:52:38.231Z,91.40
2018-11-28T00:55:08.342Z,91.40
2018-11-28T00:57:36.869Z,91.90
2018-11-28T01:00:08.657Z,91.70
2018-11-28T01:02:37.263Z,91.90
2018-11-28T01:05:06.390Z,92.30
2018-11-28T01:07:34.710Z,92.10
2018-11-28T01:10:04.255Z,91.90
2018-11-28T01:12:32.466Z,91.90
2018-11-28T01:15:00.741Z,92.00
2018-11-28T01:17:29.552Z,92.00
2018-11-28T01:19:59.069Z,92.00
2018-11-28T01:22:27.220Z,92.00
2018-11-28T01:24:56.359Z,91.90
2018-11-28T01:27:24.830Z,92.00
2018-11-28T01:29:53.555Z,92.20
2018-11-28T01:32:22.263Z,92.40
2018-11-28T01:34:50.480Z,92.60
2018-11-28T01:37:18.863Z,92.40
2018-11-28T01:39:48.072Z,91.90
2018-11-28T01:42:16.269Z,92.90
2018-11-28T01:44:44.592Z,92.70
2018-11-28T01:47:12.782Z,93.40
2018-11-28T01:49:41.303Z,93.80
2018-11-28T01:52:09.876Z,93.60
2018-11-28T01:54:38.338Z,93.10
2018-11-28T01:57:06.853Z,92.40
2018-11-28T01:59:35.586Z,92.90
2018-11-28T02:02:03.893Z,93.60
2018-11-28T02:04:32.334Z,94.70
2018-11-28T02:07:00.860Z,95.60
2018-11-28T02:09:29.135Z,95.80
2018-11-28T02:11:57.407Z,96.00
2018-11-28T02:14:25.705Z,95.80
2018-11-28T02:16:54.600Z,95.70
2018-11-28T02:19:22.754Z,95.40
2018-11-28T02:21:50.980Z,94.80
2018-11-28T02:24:19.763Z,94.60
2018-11-28T02:26:48.545Z,94.70
2018-11-28T02:29:17.575Z,94.50
2018-11-28T02:31:45.866Z,94.30
2018-11-28T02:34:14.480Z,94.00
2018-11-28T02:36:42.696Z,93.50
2018-11-28T02:39:10.853Z,93.30
2018-11-28T02:41:39.125Z,93.50
2018-11-28T02:44:07.502Z,93.00
2018-11-28T02:46:35.700Z,92.90
2018-11-28T02:49:03.925Z,93.20
2018-11-28T02:51:32.674Z,93.20
2018-11-28T02:54:01.546Z,93.50
2018-11-28T02:56:29.847Z,93.50
2018-11-28T02:58:58.671Z,94.50
2018-11-28T03:01:26.943Z,94.90
2018-11-28T03:03:55.752Z,95.90
2018-11-28T03:06:24.016Z,96.30
2018-11-28T03:08:52.170Z,96.60
2018-11-28T03:11:20.337Z,96.60
2018-11-28T03:13:48.466Z,96.60
2018-11-28T03:16:19.253Z,96.60
2018-11-28T03:18:47.760Z,96.60
2018-11-28T03:21:16.453Z,96.60
2018-11-28T03:23:44.913Z,96.60
2018-11-28T03:26:13.080Z,96.60
2018-11-28T03:28:41.421Z,96.60
2018-11-28T03:31:09.798Z,96.60
2018-11-28T03:33:38.068Z,96.50
2018-11-28T03:36:06.586Z,96.20
2018-11-28T03:38:35.211Z,96.00
2018-11-28T03:41:04.006Z,95.60
2018-11-28T03:43:32.117Z,95.20
2018-11-28T03:46:00.416Z,94.90
2018-11-28T03:48:28.547Z,94.80
2018-11-28T03:50:57.433Z,94.70
2018-11-28T03:53:25.589Z,94.50
2018-11-28T03:55:53.784Z,94.80
2018-11-28T03:58:22.010Z,94.90
2018-11-28T04:00:51.009Z,94.80
2018-11-28T04:03:19.125Z,95.00
2018-11-28T04:05:47.614Z,95.00
2018-11-28T04:08:16.045Z,95.00
2018-11-28T04:10:44.210Z,95.00
2018-11-28T04:13:12.599Z,95.00
2018-11-28T04:15:40.746Z,95.10
2018-11-28T04:18:09.343Z,95.20
2018-11-28T04:20:37.565Z,95.30
2018-11-28T04:23:05.816Z,95.40
2018-11-28T04:25:34.723Z,95.60
2018-11-28T04:28:03.469Z,95.80
2018-11-28T04:30:32.082Z,96.20
2018-11-28T04:33:00.930Z,96.50
2018-11-28T04:35:29.266Z,96.60
2018-11-28T04:37:57.471Z,96.60
2018-11-28T04:40:25.763Z,96.60
2018-11-28T04:42:54.052Z,96.60
2018-11-28T04:45:22.966Z,96.60
2018-11-28T04:47:52.334Z,96.60
2018-11-28T04:50:20.901Z,96.60
2018-11-28T04:52:49.374Z,96.60
2018-11-28T04:55:18.873Z,96.60
2018-11-28T04:57:47.262Z,96.60
2018-11-28T05:00:19.111Z,96.60
2018-11-28T05:02:47.406Z,96.60
2018-11-28T05:05:15.587Z,96.60
2018-11-28T05:07:44.828Z,96.60
2018-11-28T05:10:29.257Z,96.60
2018-11-28T05:12:59.328Z,96.60
2018-11-28T05:15:30.538Z,96.50
2018-11-28T05:17:58.849Z,96.40
2018-11-28T05:20:29.314Z,96.30
2018-11-28T05:22:57.590Z,96.60
2018-11-28T05:25:28.073Z,96.60
2018-11-28T05:27:57.093Z,96.60
2018-11-28T05:30:28.690Z,96.60
2018-11-28T05:32:56.972Z,96.60
2018-11-28T05:35:30.374Z,96.60
2018-11-28T05:37:58.809Z,96.60
2018-11-28T05:40:27.651Z,96.60
2018-11-28T05:42:56.099Z,96.60
2018-11-28T05:45:24.928Z,96.60
2018-11-28T05:47:53.402Z,96.50
2018-11-28T05:50:22.223Z,96.60
2018-11-28T05:52:50.867Z,96.50
2018-11-28T05:55:21.143Z,96.40
2018-11-28T05:57:49.649Z,96.30
2018-11-28T06:00:28.308Z,96.30
2018-11-28T06:02:56.466Z,96.40
2018-11-28T06:05:24.624Z,96.30
2018-11-28T06:07:52.934Z,96.30
2018-11-28T06:10:21.366Z,96.20
2018-11-28T06:12:49.646Z,96.20
2018-11-28T06:15:17.925Z,96.20
2018-11-28T06:17:46.198Z,96.30
2018-11-28T06:20:15.438Z,96.30
2018-11-28T06:22:43.778Z,96.20
2018-11-28T06:25:16.144Z,96.20
2018-11-28T06:27:41.708Z,96.20
2018-11-28T06:30:11.926Z,96.10
2018-11-28T06:32:40.962Z,96.10
2018-11-28T06:35:09.927Z,96.10
2018-11-28T06:37:38.263Z,96.10
2018-11-28T06:40:13.929Z,96.20
2018-11-28T06:42:42.486Z,96.00
2018-11-28T06:45:15.225Z,96.00
2018-11-28T06:47:43.549Z,95.80
2018-11-28T06:50:19.134Z,95.60
2018-11-28T06:52:48.542Z,95.50
2018-11-28T06:55:17.942Z,95.30
2018-11-28T06:57:46.103Z,95.20
2018-11-28T07:00:16.689Z,95.30
2018-11-28T07:02:45.086Z,95.30
2018-11-28T07:05:13.495Z,95.30
2018-11-28T07:07:41.848Z,95.30
2018-11-28T07:10:13.528Z,95.40
2018-11-28T07:12:41.833Z,95.30
2018-11-28T07:15:13.085Z,95.30
2018-11-28T07:17:42.403Z,95.10
2018-11-28T07:20:12.768Z,94.90
2018-11-28T07:22:41.365Z,94.70
2018-11-28T07:25:13.728Z,94.90
2018-11-28T07:27:44.990Z,95.00
2018-11-28T07:30:19.568Z,94.90
2018-11-28T07:32:48.604Z,94.90
2018-11-28T07:35:16.859Z,94.90
2018-11-28T07:37:45.029Z,95.00
2018-11-28T07:40:15.447Z,94.80
2018-11-28T07:42:49.590Z,94.60
2018-11-28T07:45:18.354Z,94.50
2018-11-28T07:47:46.467Z,94.50
2018-11-28T07:50:15.299Z,94.70
2018-11-28T07:52:43.445Z,94.70
2018-11-28T07:55:11.911Z,94.60
2018-11-28T07:57:40.378Z,94.00
2018-11-28T08:00:11.122Z,93.60
2018-11-28T08:02:39.670Z,93.80
2018-11-28T08:05:09.436Z,93.70
2018-11-28T08:07:37.975Z,93.20
2018-11-28T08:10:08.351Z,93.50
2018-11-28T08:12:36.784Z,93.70
2018-11-28T08:15:06.795Z,93.00
2018-11-28T08:17:36.331Z,93.10
2018-11-28T08:20:04.063Z,93.30
2018-11-28T08:22:32.284Z,92.80
2018-11-28T08:25:00.468Z,92.30
2018-11-28T08:27:28.639Z,91.90
2018-11-28T08:29:57.130Z,91.80
2018-11-28T08:32:25.591Z,92.30
2018-11-28T08:34:53.857Z,90.90
2018-11-28T08:37:22.079Z,91.50
2018-11-28T08:39:50.266Z,91.30
2018-11-28T08:42:18.476Z,91.50
2018-11-28T08:44:46.881Z,90.30
2018-11-28T08:47:15.950Z,88.40
2018-11-28T08:49:44.470Z,87.90
2018-11-28T08:52:12.970Z,89.20
2018-11-28T08:54:41.162Z,88.20
2018-11-28T08:57:09.505Z,88.70
2018-11-28T08:59:38.449Z,88.50
2018-11-28T09:02:06.705Z,87.60
2018-11-28T09:04:35.032Z,87.20
2018-11-28T09:07:03.335Z,87.50
2018-11-28T09:09:31.454Z,87.00
2018-11-28T09:11:59.827Z,86.80
2018-11-28T09:14:28.262Z,86.50
2018-11-28T09:16:57.110Z,86.00
2018-11-28T09:19:25.340Z,85.60
2018-11-28T09:21:53.511Z,85.20
2018-11-28T09:24:21.918Z,84.10
2018-11-28T09:26:50.372Z,83.70
2018-11-28T09:29:18.755Z,84.20
2018-11-28T09:31:46.995Z,83.60
2018-11-28T09:34:15.369Z,82.90
2018-11-28T09:36:43.685Z,82.70
2018-11-28T09:39:12.966Z,82.40
2018-11-28T09:41:41.065Z,81.60
2018-11-28T09:44:09.266Z,82.80
2018-11-28T09:46:37.564Z,82.50
2018-11-28T09:49:06.319Z,81.40
2018-11-28T09:51:34.535Z,81.40
2018-11-28T09:54:02.749Z,80.70
2018-11-28T09:56:31.119Z,79.40
2018-11-28T09:59:00.980Z,78.90
2018-11-28T10:01:29.315Z,79.60
2018-11-28T10:03:57.713Z,79.50
2018-11-28T10:06:25.866Z,79.50
2018-11-28T10:08:54.207Z,79.60
2018-11-28T10:11:22.908Z,78.60
2018-11-28T10:13:51.472Z,78.20
2018-11-28T10:16:20.199Z,77.40
2018-11-28T10:18:49.112Z,75.80
2018-11-28T10:21:17.428Z,75.70
2018-11-28T10:23:45.980Z,75.10
2018-11-28T10:26:15.118Z,73.90
2018-11-28T10:28:43.267Z,73.90
2018-11-28T10:31:11.495Z,73.30
2018-11-28T10:33:39.646Z,74.10
2018-11-28T10:36:07.852Z,73.60
2018-11-28T10:38:36.235Z,73.40
2018-11-28T10:41:04.422Z,74.00
2018-11-28T10:43:32.651Z,74.20
2018-11-28T10:46:01.510Z,73.80
2018-11-28T10:48:29.870Z,74.30
2018-11-28T10:50:58.049Z,73.00
2018-11-28T10:53:26.251Z,73.60
2018-11-28T10:55:54.530Z,73.10
2018-11-28T10:58:22.790Z,72.50
2018-11-28T11:00:56.595Z,72.50
2018-11-28T11:03:30.606Z,72.70
2018-11-28T11:06:03.788Z,72.80
2018-11-28T11:08:38.690Z,72.40
2018-11-28T11:11:12.543Z,72.00
2018-11-28T11:13:45.976Z,69.90
2018-11-28T11:16:18.765Z,70.90
2018-11-28T11:18:47.492Z,71.60
2018-11-28T11:21:15.929Z,73.10
2018-11-28T11:23:44.331Z,72.30
2018-11-28T11:26:12.586Z,72.10
2018-11-28T11:28:40.896Z,71.50
2018-11-28T11:31:09.257Z,72.50
2018-11-28T11:33:37.502Z,69.70
2018-11-28T11:36:06.056Z,67.80
2018-11-28T11:38:34.224Z,66.50
2018-11-28T11:41:02.782Z,66.80
2018-11-28T11:43:31.802Z,63.50
2018-11-28T11:46:00.253Z,62.50
2018-11-28T11:48:28.582Z,62.30
2018-11-28T11:50:56.851Z,61.80
2018-11-28T11:53:25.316Z,62.70
2018-11-28T11:55:53.628Z,65.50
2018-11-28T11:58:22.151Z,63.80
2018-11-28T12:00:51.506Z,65.80
2018-11-28T12:03:19.655Z,68.00
2018-11-28T12:05:49.992Z,67.60
2018-11-28T12:08:18.183Z,68.70
2018-11-28T12:10:46.820Z,67.30
2018-11-28T12:13:15.483Z,67.60
2018-11-28T12:15:43.686Z,69.20
2018-11-28T12:18:12.478Z,68.20
2018-11-28T12:21:11.535Z,65.90
2018-11-28T12:23:39.876Z,66.70
2018-11-28T12:26:08.403Z,69.80
2018-11-28T12:28:36.527Z,71.80
2018-11-28T12:31:04.818Z,71.80
2018-11-28T12:33:33.320Z,73.70
2018-11-28T12:36:01.499Z,74.40
2018-11-28T12:38:29.865Z,73.60
2018-11-28T12:40:58.751Z,74.20
2018-11-28T12:43:27.081Z,75.50
2018-11-28T12:45:55.365Z,76.20
2018-11-28T12:48:23.696Z,75.70
2018-11-28T12:50:52.058Z,75.80
2018-11-28T12:53:21.344Z,75.80
2018-11-28T12:55:49.470Z,75.50
2018-11-28T12:58:19.295Z,74.30
2018-11-28T13:00:47.798Z,72.30
2018-11-28T13:03:18.409Z,72.00
2018-11-28T13:05:46.885Z,71.40
2018-11-28T13:08:15.009Z,71.20
2018-11-28T13:10:44.006Z,69.20
2018-11-28T13:13:12.283Z,68.90
2018-11-28T13:15:41.095Z,67.10
2018-11-28T13:18:10.766Z,67.50
2018-11-28T13:20:40.069Z,67.60
2018-11-28T13:23:09.725Z,67.50
2018-11-28T13:25:38.038Z,67.80
2018-11-28T13:28:06.743Z,68.50
2018-11-28T13:30:34.990Z,69.60
2018-11-28T13:33:03.929Z,69.60
2018-11-28T13:35:32.088Z,70.60
2018-11-28T13:38:09.638Z,71.80
2018-11-28T13:40:38.074Z,72.60
2018-11-28T13:43:06.773Z,71.70
2018-11-28T13:45:36.712Z,72.10
2018-11-28T13:48:05.903Z,72.80
2018-11-28T13:50:34.175Z,73.00
2018-11-28T13:53:04.734Z,73.20
2018-11-28T13:55:40.989Z,74.20
2018-11-28T13:58:03.819Z,73.40
2018-11-28T14:00:32.317Z,73.30
2018-11-28T14:03:01.035Z,72.30
2018-11-28T14:05:29.142Z,72.30
2018-11-28T14:07:57.792Z,72.10
2018-11-28T14:10:26.126Z,71.50
2018-11-28T14:12:55.018Z,70.30
2018-11-28T14:15:23.541Z,70.40
2018-11-28T14:18:00.860Z,70.20
2018-11-28T14:20:29.105Z,69.90
2018-11-28T14:22:57.322Z,70.80
2018-11-28T14:25:26.021Z,71.00
2018-11-28T14:27:54.317Z,71.40
2018-11-28T14:30:23.162Z,71.40
2018-11-28T14:32:52.549Z,71.20
2018-11-28T14:35:21.861Z,71.10
2018-11-28T14:37:50.452Z,71.10
2018-11-28T14:40:20.688Z,70.90
2018-11-28T14:42:50.217Z,71.10
2018-11-28T14:45:19.119Z,71.70
2018-11-28T14:47:49.487Z,72.40
2018-11-28T14:50:18.638Z,73.30
2018-11-28T14:52:47.192Z,73.20
2018-11-28T14:55:21.607Z,73.50
2018-11-28T14:57:50.100Z,73.50
2018-11-28T15:00:23.508Z,73.80
2018-11-28T15:02:57.114Z,74.30
2018-11-28T15:05:35.335Z,74.50
2018-11-28T15:08:13.750Z,74.60
2018-11-28T15:10:46.078Z,75.30
2018-11-28T15:13:14.298Z,75.50
2018-11-28T15:15:42.741Z,75.90
2018-11-28T15:18:11.519Z,76.50
2018-11-28T15:20:39.912Z,77.20
2018-11-28T15:23:08.079Z,77.50
2018-11-28T15:25:36.448Z,77.60
2018-11-28T15:28:04.663Z,77.60
2018-11-28T15:30:32.958Z,78.30
2018-11-28T15:33:01.508Z,78.80
2018-11-28T15:35:29.965Z,79.30
2018-11-28T15:37:58.563Z,79.40
2018-11-28T15:40:26.891Z,80.00
2018-11-28T15:42:55.486Z,80.10
2018-11-28T15:45:23.873Z,80.20
2018-11-28T15:47:52.826Z,80.40
2018-11-28T15:50:22.064Z,80.60
2018-11-28T15:52:50.763Z,81.20
2018-11-28T15:55:19.299Z,81.30
2018-11-28T15:57:48.234Z,81.30
2018-11-28T16:00:24.678Z,81.20
2018-11-28T16:02:54.175Z,81.20
2018-11-28T16:05:22.318Z,81.00
2018-11-28T16:07:50.715Z,81.30
2018-11-28T16:10:24.445Z,81.30
2018-11-28T16:12:54.190Z,81.10
2018-11-28T16:15:24.284Z,81.10
2018-11-28T16:17:52.978Z,81.30
2018-11-28T16:20:21.118Z,81.30
2018-11-28T16:22:50.155Z,81.20
2018-11-28T16:25:18.268Z,81.20
2018-11-28T16:27:46.916Z,81.40
2018-11-28T16:30:16.143Z,81.40
2018-11-28T16:32:45.412Z,81.20
2018-11-28T16:35:15.235Z,81.10
2018-11-28T16:37:43.600Z,81.10
2018-11-28T16:40:16.463Z,81.30
2018-11-28T16:42:44.767Z,81.40
2018-11-28T16:45:17.494Z,81.30
2018-11-28T16:47:46.856Z,81.50
2018-11-28T16:50:15.746Z,81.50
2018-11-28T16:52:43.967Z,81.40
2018-11-28T16:55:14.755Z,81.50
2018-11-28T16:57:44.274Z,81.60
2018-11-28T17:00:17.950Z,81.40
2018-11-28T17:02:46.350Z,81.60
2018-11-28T17:05:16.846Z,81.90
2018-11-28T17:07:45.233Z,82.10
2018-11-28T17:10:16.445Z,82.30
2018-11-28T17:12:46.981Z,82.70
2018-11-28T17:15:16.082Z,83.10
2018-11-28T17:17:46.306Z,83.40
2018-11-28T17:20:16.882Z,83.50
2018-11-28T17:22:45.466Z,83.90
2018-11-28T17:25:23.024Z,84.00
2018-11-28T17:27:52.325Z,84.10
2018-11-28T17:30:23.069Z,83.80
2018-11-28T17:32:52.274Z,84.00
2018-11-28T17:35:20.624Z,83.90
2018-11-28T17:37:48.803Z,84.00
2018-11-28T17:40:18.800Z,83.90
2018-11-28T17:42:49.489Z,84.10
2018-11-28T17:45:18.748Z,84.10
2018-11-28T17:47:46.974Z,84.10
2018-11-28T17:50:19.261Z,84.30
2018-11-28T17:53:20.750Z,84.20
2018-11-28T17:55:52.189Z,84.00
2018-11-28T17:58:20.610Z,83.40
2018-11-28T18:00:49.027Z,83.40
2018-11-28T18:03:17.600Z,82.90
2018-11-28T18:05:46.066Z,82.50
2018-11-28T18:08:14.940Z,82.00
2018-11-28T18:10:43.702Z,82.00
2018-11-28T18:13:17.245Z,82.00
2018-11-28T18:15:51.647Z,82.40
2018-11-28T18:18:23.073Z,82.10
2018-11-28T18:20:51.525Z,82.10
2018-11-28T18:23:19.896Z,82.10
2018-11-28T18:25:48.330Z,82.00
2018-11-28T18:28:16.517Z,81.80
2018-11-28T18:30:45.155Z,81.70
2018-11-28T18:33:14.139Z,81.60
2018-11-28T18:35:42.717Z,81.50
2018-11-28T18:38:11.324Z,81.60
2018-11-28T18:40:39.498Z,81.60
2018-11-28T18:43:09.693Z,81.50
2018-11-28T18:45:44.051Z,81.20
2018-11-28T18:48:14.922Z,81.40
2018-11-28T18:50:43.496Z,81.50
2018-11-28T18:53:15.493Z,81.60
2018-11-28T18:55:45.895Z,81.40
2018-11-28T18:58:15.878Z,81.10
2018-11-28T19:00:45.870Z,81.30
2018-11-28T19:03:16.235Z,80.90
2018-11-28T19:05:44.428Z,80.90
2018-11-28T19:08:15.497Z,80.80
2018-11-28T19:10:44.394Z,80.80
2018-11-28T19:13:13.541Z,80.70
2018-11-28T19:15:41.686Z,80.70
2018-11-28T19:18:10.545Z,80.50
2018-11-28T19:20:38.811Z,80.60
2018-11-28T19:23:07.822Z,80.70
2018-11-28T19:25:36.018Z,81.00
2018-11-28T19:28:04.492Z,81.80
2018-11-28T19:30:36.648Z,82.10
2018-11-28T19:33:06.269Z,82.40
2018-11-28T19:35:35.408Z,82.90
2018-11-28T19:38:03.772Z,83.60
2018-11-28T19:40:35.001Z,83.30
2018-11-28T19:43:04.552Z,83.00
2018-11-28T19:45:32.767Z,83.00
2018-11-28T19:48:01.868Z,83.20
2018-11-28T19:50:31.981Z,83.40
2018-11-28T19:53:01.415Z,83.40
2018-11-28T19:55:29.542Z,83.60
2018-11-28T19:57:57.825Z,83.30
2018-11-28T20:00:26.322Z,83.50
2018-11-28T20:02:54.566Z,83.40
2018-11-28T20:05:23.436Z,83.10
2018-11-28T20:07:51.676Z,83.40
2018-11-28T20:10:22.096Z,83.50
2018-11-28T20:12:51.182Z,83.20
2018-11-28T20:15:24.740Z,83.50
2018-11-28T20:17:53.468Z,83.50
2018-11-28T20:20:21.756Z,84.00
2018-11-28T20:22:50.201Z,83.70
2018-11-28T20:25:19.605Z,83.90
2018-11-28T20:27:50.626Z,84.20
2018-11-28T20:30:20.370Z,84.60
2018-11-28T20:32:48.572Z,85.60
2018-11-28T20:35:17.168Z,86.90
2018-11-28T20:37:45.286Z,87.90
2018-11-28T20:40:15.105Z,88.60
2018-11-28T20:42:44.807Z,89.50
2018-11-28T20:45:13.574Z,90.20
2018-11-28T20:47:41.892Z,91.10
2018-11-28T20:50:11.752Z,91.30
2018-11-28T20:52:41.419Z,92.00
2018-11-28T20:55:10.314Z,92.80
2018-11-28T20:57:38.815Z,93.10
2018-11-28T21:00:14.202Z,93.10
2018-11-28T21:02:42.463Z,93.30
2018-11-28T21:05:11.442Z,93.40
2018-11-28T21:07:40.834Z,93.50
2018-11-28T21:10:16.921Z,93.50
2018-11-28T21:12:47.332Z,93.30
2018-11-28T21:15:15.864Z,93.10
2018-11-28T21:17:45.311Z,93.10
2018-11-28T21:20:15.678Z,93.20
2018-11-28T21:22:45.239Z,93.30
2018-11-28T21:25:13.513Z,93.10
2018-11-28T21:27:42.375Z,92.90
2018-11-28T21:30:13.965Z,92.50
2018-11-28T21:32:42.610Z,92.50
2018-11-28T21:35:44.191Z,92.60
2018-11-28T21:38:13.128Z,92.70
2018-11-28T21:40:41.508Z,93.00
2018-11-28T21:43:10.503Z,93.30
2018-11-28T21:45:38.857Z,93.30
2018-11-28T21:48:07.302Z,93.60
2018-11-28T21:50:36.216Z,93.90
2018-11-28T21:53:05.170Z,94.10
2018-11-28T21:55:33.694Z,94.30
2018-11-28T21:58:01.932Z,94.40
2018-11-28T22:00:30.384Z,94.50
2018-11-28T22:02:58.879Z,94.40
2018-11-28T22:05:27.791Z,94.50
2018-11-28T22:07:57.850Z,94.80
2018-11-28T22:10:26.337Z,94.90
2018-11-28T22:12:55.582Z,95.00
2018-11-28T22:15:24.057Z,95.30
2018-11-28T22:17:54.158Z,95.90
2018-11-28T22:20:22.715Z,96.10
2018-11-28T22:22:50.903Z,96.50
2018-11-28T22:25:21.882Z,96.60
2018-11-28T22:27:50.514Z,96.60
2018-11-28T22:30:22.750Z,96.60
2018-11-28T22:32:51.061Z,96.60
2018-11-28T22:35:19.367Z,96.60
2018-11-28T22:37:47.591Z,96.50
2018-11-28T22:40:25.750Z,96.40
2018-11-28T22:42:54.398Z,96.40
2018-11-28T22:45:24.066Z,96.30
2018-11-28T22:47:52.532Z,96.10
2018-11-28T22:50:20.852Z,96.10
2018-11-28T22:52:50.191Z,95.90
2018-11-28T22:55:18.918Z,95.50
2018-11-28T22:57:47.561Z,95.20
2018-11-28T23:00:32.986Z,94.90
2018-11-28T23:03:09.278Z,95.10
2018-11-28T23:05:41.743Z,95.70
2018-11-28T23:08:10.986Z,96.10
2018-11-28T23:10:40.233Z,96.30
2018-11-28T23:13:10.459Z,96.30
2018-11-28T23:15:38.654Z,96.00
2018-11-28T23:18:08.438Z,95.60
2018-11-28T23:20:38.320Z,95.50
2018-11-28T23:23:07.675Z,95.60
2018-11-28T23:25:36.522Z,95.50
2018-11-28T23:28:04.819Z,95.30
2018-11-28T23:30:33.998Z,95.20
2018-11-28T23:33:02.997Z,95.30
2018-11-28T23:35:31.833Z,95.10
2018-11-28T23:38:00.879Z,95.20
2018-11-28T23:40:28.977Z,95.10
2018-11-28T23:42:57.247Z,95.20
2018-11-28T23:45:26.081Z,95.00
2018-11-28T23:47:54.778Z,94.90
2018-11-28T23:50:24.246Z,94.90
2018-11-28T23:52:53.987Z,94.80
2018-11-28T23:55:23.133Z,94.90
2018-11-28T23:57:51.567Z,94.80
